Time;durP1;ratioP1;P1;durP2;ratioP2;P2;SDS_P1;SDS_P2;PMS_P1;PMS_P2;Temp;Humidity;BMP_temperature;BMP_pressure;BME280_temperature;BME280_humidity;BME280_pressure;Samples;Min_cycle;Max_cycle;Signal;HPM_P1;HPM_P2
2023/05/23 00:01:36;;;;;;;;;34.50;31.25;;;;;16.43;85.22;101113.75;5035662;28;45372;-74
2023/05/23 00:04:05;;;;;;;;;35.75;32.00;;;;;16.38;85.01;101111.38;5036043;28;45421;-73
2023/05/23 00:06:30;;;;;;;;;30.00;29.75;;;;;16.40;85.10;101122.78;5035739;28;45324;-66
2023/05/23 00:08:56;;;;;;;;;30.25;30.00;;;;;16.28;84.56;101111.03;5035271;28;46328;-69
2023/05/23 00:11:25;;;;;;;;;27.50;27.00;;;;;16.35;84.76;101120.38;5034851;28;61612;-65
2023/05/23 00:13:53;;;;;;;;;25.50;25.50;;;;;16.31;84.57;101116.16;5035058;28;45272;-67
2023/05/23 00:16:20;;;;;;;;;32.75;31.00;;;;;16.28;84.22;101113.69;5050854;28;45336;-64
2023/05/23 00:18:46;;;;;;;;;29.25;27.00;;;;;16.34;83.87;101109.84;5034185;28;47905;-63
2023/05/23 00:21:12;;;;;;;;;33.50;32.00;;;;;16.31;84.22;101104.72;5035485;28;45390;-73
2023/05/23 00:23:41;;;;;;;;;30.50;29.25;;;;;16.28;84.17;101108.38;5052186;28;45361;-80
2023/05/23 00:26:07;;;;;;;;;35.00;32.50;;;;;16.15;84.18;101108.22;5035722;28;45259;-80
2023/05/23 00:28:32;;;;;;;;;36.25;33.75;;;;;16.14;84.72;101103.84;5035847;28;45534;-77
2023/05/23 00:30:57;;;;;;;;;32.75;31.00;;;;;16.06;84.26;101106.09;5035374;28;52253;-79
2023/05/23 00:33:23;;;;;;;;;31.25;30.25;;;;;16.11;84.24;101121.72;5035446;28;45218;-79
2023/05/23 00:35:48;;;;;;;;;31.25;30.25;;;;;16.14;84.39;101130.41;5034366;28;45273;-80
2023/05/23 00:38:13;;;;;;;;;27.25;27.00;;;;;16.10;84.82;101118.25;5035995;28;46273;-77
2023/05/23 00:40:39;;;;;;;;;34.25;31.50;;;;;15.99;85.10;101110.84;5035485;28;45434;-80
2023/05/23 00:43:05;;;;;;;;;30.75;28.25;;;;;15.96;84.56;101110.19;5035736;28;45334;-72
2023/05/23 00:45:30;;;;;;;;;34.00;31.00;;;;;15.94;84.74;101109.41;5036621;28;45295;-71
2023/05/23 00:47:58;;;;;;;;;28.50;28.25;;;;;15.92;84.60;101114.78;5035986;28;45536;-75
2023/05/23 00:50:23;;;;;;;;;51.00;42.00;;;;;15.88;85.32;101121.19;5038980;28;45349;-74
2023/05/23 00:52:49;;;;;;;;;30.50;30.00;;;;;15.82;85.00;101113.53;5043000;28;45337;-76
2023/05/23 00:55:15;;;;;;;;;24.50;24.50;;;;;15.88;85.16;101113.22;5037680;28;45307;-80
2023/05/23 00:57:43;;;;;;;;;32.25;27.75;;;;;15.83;85.04;101099.34;5038337;28;46102;-81
2023/05/23 01:00:10;;;;;;;;;30.00;29.50;;;;;15.82;85.29;101105.56;5035822;28;45255;-80
2023/05/23 01:02:44;;;;;;;;;29.50;28.75;;;;;15.80;84.59;101103.00;5036162;28;45296;-79
2023/05/23 01:05:13;;;;;;;;;29.25;28.50;;;;;15.72;84.57;101100.78;5035142;28;45376;-79
2023/05/23 01:07:40;;;;;;;;;26.75;26.75;;;;;15.69;84.57;101097.41;5035104;28;45451;-79
2023/05/23 01:10:06;;;;;;;;;28.00;28.00;;;;;15.72;84.27;101095.47;5038667;28;45289;-78
2023/05/23 01:12:45;;;;;;;;;24.25;24.25;;;;;15.75;84.38;101097.09;5038959;28;44867;-73
2023/05/23 01:15:26;;;;;;;;;28.50;27.25;;;;;15.73;84.40;101098.97;5036463;28;45306;-76
2023/05/23 01:18:09;;;;;;;;;24.00;23.25;;;;;15.71;84.19;101103.50;5035691;28;45589;-79
2023/05/23 01:20:40;;;;;;;;;27.75;27.50;;;;;15.67;83.88;101099.28;5036295;28;45241;-66
2023/05/23 01:23:28;;;;;;;;;27.00;26.50;;;;;15.71;83.96;101107.00;5044517;28;45498;-80
2023/05/23 01:26:02;;;;;;;;;29.00;27.75;;;;;15.73;83.93;101112.22;5043997;28;45300;-64
2023/05/23 01:28:32;;;;;;;;;33.00;29.75;;;;;15.76;84.06;101104.09;5048828;28;46426;-68
2023/05/23 01:31:02;;;;;;;;;27.25;27.25;;;;;15.78;84.37;101113.69;5039761;28;45317;-80
2023/05/23 01:33:29;;;;;;;;;29.75;29.75;;;;;15.79;84.47;101114.53;5039680;28;45244;-81
2023/05/23 01:35:59;;;;;;;;;32.00;31.00;;;;;15.76;84.10;101123.53;5038248;28;45590;-74
2023/05/23 01:38:25;;;;;;;;;30.25;28.50;;;;;15.69;84.88;101119.50;5037788;28;45631;-71
2023/05/23 01:40:50;;;;;;;;;26.50;26.25;;;;;15.54;84.43;101107.06;5036385;28;45719;-77
2023/05/23 01:43:16;;;;;;;;;28.50;28.50;;;;;15.53;84.17;101113.31;5038851;28;45460;-79
2023/05/23 01:45:42;;;;;;;;;29.25;28.50;;;;;15.50;85.14;101116.94;5039759;28;45394;-79
2023/05/23 01:48:10;;;;;;;;;28.00;27.75;;;;;15.45;85.14;101116.34;5037717;28;45358;-72
2023/05/23 01:50:36;;;;;;;;;25.75;25.00;;;;;15.48;84.67;101111.75;5037735;28;45360;-76
2023/05/23 01:53:02;;;;;;;;;33.00;30.25;;;;;15.48;84.53;101126.78;5037693;28;45264;-64
2023/05/23 01:55:28;;;;;;;;;27.50;27.25;;;;;15.42;84.78;101127.09;5038691;28;45280;-66
2023/05/23 01:57:57;;;;;;;;;30.75;30.25;;;;;15.40;85.22;101123.66;5037995;28;45356;-69
2023/05/23 02:00:23;;;;;;;;;30.25;30.00;;;;;15.37;85.20;101122.03;5037463;28;45582;-69
2023/05/23 02:02:48;;;;;;;;;30.50;30.50;;;;;15.40;86.10;101118.38;5038433;28;45332;-78
2023/05/23 02:05:14;;;;;;;;;31.75;29.50;;;;;15.33;85.30;101129.28;5038988;28;45654;-76
2023/05/23 02:07:39;;;;;;;;;31.00;30.75;;;;;15.30;86.47;101134.75;5036145;28;54106;-79
2023/05/23 02:10:07;;;;;;;;;31.00;29.25;;;;;15.27;86.63;101120.78;5038171;28;45257;-80
2023/05/23 02:12:32;;;;;;;;;34.75;32.75;;;;;15.19;86.25;101105.28;5037623;28;45289;-77
2023/05/23 02:14:58;;;;;;;;;29.75;29.75;;;;;15.25;87.17;101120.00;5039337;28;48574;-80
2023/05/23 02:17:23;;;;;;;;;26.50;26.50;;;;;15.24;87.12;101115.66;5038581;28;59773;-75
2023/05/23 02:19:49;;;;;;;;;25.50;24.75;;;;;15.27;87.51;101129.63;5038798;28;47542;-77
2023/05/23 02:22:14;;;;;;;;;32.25;31.50;;;;;15.25;87.11;101126.19;5038007;28;45407;-80
2023/05/23 02:24:40;;;;;;;;;32.75;31.50;;;;;15.24;87.56;101121.81;5038209;28;45660;-74
2023/05/23 02:27:05;;;;;;;;;31.75;31.25;;;;;15.11;88.07;101104.84;5036140;28;47974;-81
2023/05/23 02:29:31;;;;;;;;;33.25;31.50;;;;;15.21;88.50;101129.06;5052827;28;45446;-77
2023/05/23 02:31:56;;;;;;;;;31.50;30.00;;;;;15.17;88.74;101128.38;5037217;28;45387;-69
2023/05/23 02:34:21;;;;;;;;;31.75;30.75;;;;;15.11;89.53;101131.31;5037887;28;45464;-77
2023/05/23 02:36:47;;;;;;;;;32.00;31.25;;;;;15.08;88.76;101131.47;5037692;28;46730;-76
2023/05/23 02:39:12;;;;;;;;;32.25;31.25;;;;;15.11;89.13;101134.81;5037300;28;45367;-80
2023/05/23 02:41:37;;;;;;;;;32.00;31.00;;;;;15.14;89.10;101131.19;5036946;28;49539;-77
2023/05/23 02:44:03;;;;;;;;;32.25;31.25;;;;;15.20;88.64;101136.16;5037405;28;45335;-81
2023/05/23 02:46:28;;;;;;;;;31.00;30.50;;;;;15.18;89.04;101127.44;5036607;28;46262;-78
2023/05/23 02:48:53;;;;;;;;;31.25;30.50;;;;;15.21;88.18;101127.28;5036495;28;50990;-79
2023/05/23 02:51:19;;;;;;;;;25.00;25.00;;;;;15.16;88.17;101116.91;5037660;28;45293;-78
2023/05/23 02:53:45;;;;;;;;;28.00;28.00;;;;;15.17;88.10;101120.41;5037214;28;45513;-69
2023/05/23 02:56:12;;;;;;;;;34.25;32.50;;;;;15.12;88.64;101131.22;5036558;28;45933;-69
2023/05/23 02:58:38;;;;;;;;;27.25;27.00;;;;;15.13;87.88;101134.75;5036533;28;45344;-65
2023/05/23 03:01:04;;;;;;;;;32.00;31.00;;;;;15.04;88.49;101129.00;5036654;28;45256;-67
2023/05/23 03:03:32;;;;;;;;;27.00;27.00;;;;;14.94;88.79;101125.09;5037116;28;45355;-67
2023/05/23 03:05:58;;;;;;;;;26.50;26.50;;;;;14.85;89.45;101134.34;5036559;28;45922;-74
2023/05/23 03:08:23;;;;;;;;;29.00;29.00;;;;;14.83;89.17;101136.19;5036897;28;45357;-68
2023/05/23 03:10:49;;;;;;;;;30.25;28.75;;;;;14.83;89.27;101130.91;5040547;28;45300;-68
2023/05/23 03:13:14;;;;;;;;;33.00;29.75;;;;;14.83;90.38;101133.56;5038125;28;45569;-64
2023/05/23 03:15:40;;;;;;;;;29.50;29.25;;;;;14.81;90.34;101137.19;5037995;28;47175;-63
2023/05/23 03:18:05;;;;;;;;;31.00;30.75;;;;;14.50;89.97;101091.88;5038057;28;45465;-75
2023/05/23 03:20:31;;;;;;;;;25.75;25.75;;;;;14.67;90.21;101125.47;5037426;28;45807;-74
2023/05/23 03:22:56;;;;;;;;;28.25;28.25;;;;;14.64;90.48;101133.56;5037441;28;45498;-73
2023/05/23 03:25:21;;;;;;;;;29.75;29.75;;;;;14.61;90.89;101139.00;5036614;28;52970;-80
2023/05/23 03:27:47;;;;;;;;;32.50;30.00;;;;;14.53;90.73;101127.91;5034828;28;50483;-80
2023/05/23 03:30:12;;;;;;;;;32.75;31.50;;;;;14.54;91.09;101140.22;5036632;28;45234;-81
2023/05/23 03:32:38;;;;;;;;;32.50;31.25;;;;;14.50;91.43;101149.25;5036650;28;45210;-74
2023/05/23 03:35:03;;;;;;;;;31.25;30.75;;;;;14.47;91.87;101155.56;5036742;28;46051;-77
2023/05/23 03:37:29;;;;;;;;;28.25;28.25;;;;;14.30;91.94;101127.25;5035323;28;45329;-65
2023/05/23 03:39:54;;;;;;;;;33.75;32.00;;;;;14.44;91.89;101158.34;5036706;28;45459;-65
2023/05/23 03:42:19;;;;;;;;;37.50;34.25;;;;;14.46;92.18;101164.44;5036620;28;45329;-65
2023/05/23 03:44:44;;;;;;;;;33.25;32.25;;;;;14.42;92.99;101161.06;5035036;28;60291;-63
2023/05/23 03:47:10;;;;;;;;;32.25;30.50;;;;;14.37;92.84;101152.47;5035546;28;59894;-65
2023/05/23 03:49:35;;;;;;;;;33.50;32.50;;;;;14.35;93.32;101164.09;5034583;28;45400;-64
2023/05/23 03:52:01;;;;;;;;;24.00;23.75;;;;;14.32;92.83;101155.34;5036437;28;45284;-66
2023/05/23 03:54:26;;;;;;;;;38.75;34.50;;;;;14.22;93.95;101163.78;5036895;28;46374;-73
2023/05/23 03:56:51;;;;;;;;;34.75;33.25;;;;;14.17;93.53;101156.91;5053306;28;45415;-65
2023/05/23 03:59:17;;;;;;;;;34.00;32.75;;;;;14.13;93.79;101158.00;5039363;28;45382;-76
2023/05/23 04:01:42;;;;;;;;;33.25;31.25;;;;;14.18;94.02;101171.00;5043315;28;45393;-74
2023/05/23 04:04:08;;;;;;;;;33.75;32.00;;;;;14.18;94.08;101171.00;5041143;28;46354;-78
2023/05/23 04:06:33;;;;;;;;;34.00;33.00;;;;;14.17;93.84;101169.28;5039897;28;45397;-65
2023/05/23 04:08:59;;;;;;;;;32.25;31.50;;;;;14.07;93.25;101147.69;5038234;28;45324;-72
2023/05/23 04:11:24;;;;;;;;;32.75;32.00;;;;;14.20;94.14;101169.13;5053201;28;45417;-80
2023/05/23 04:13:50;;;;;;;;;37.25;34.25;;;;;14.19;94.24;101161.28;5036749;28;45388;-80
2023/05/23 04:16:16;;;;;;;;;35.75;32.75;;;;;14.15;94.46;101163.19;5036187;28;45234;-82
2023/05/23 04:18:42;;;;;;;;;36.50;33.75;;;;;14.15;93.82;101171.13;5036783;28;45866;-82
2023/05/23 04:21:07;;;;;;;;;35.50;33.75;;;;;14.17;93.93;101175.44;5038636;28;45363;-79
2023/05/23 04:23:33;;;;;;;;;40.75;35.25;;;;;14.22;94.81;101182.31;5039219;28;46347;-75
2023/05/23 04:25:59;;;;;;;;;33.00;32.00;;;;;14.22;93.99;101179.66;5041633;28;45247;-80
2023/05/23 04:28:26;;;;;;;;;32.50;31.25;;;;;14.20;94.44;101185.00;5038675;28;45503;-79
2023/05/23 04:30:52;;;;;;;;;34.75;31.50;;;;;14.16;94.20;101194.00;5037158;28;45431;-77
2023/05/23 04:33:18;;;;;;;;;34.75;31.50;;;;;14.10;93.96;101178.41;5052092;28;46569;-77
2023/05/23 04:35:44;;;;;;;;;34.75;33.00;;;;;14.09;94.75;101176.69;5051348;28;45352;-77
2023/05/23 04:38:09;;;;;;;;;32.00;31.25;;;;;14.13;93.89;101187.09;5036590;28;45390;-81
2023/05/23 04:40:35;;;;;;;;;32.75;31.50;;;;;14.14;94.19;101194.09;5033567;28;45601;-70
2023/05/23 04:43:00;;;;;;;;;26.00;26.00;;;;;14.19;94.17;101187.75;5034641;28;46141;-74
2023/05/23 04:45:27;;;;;;;;;28.25;28.25;;;;;14.15;94.58;101193.16;5035334;28;45243;-71
2023/05/23 04:47:53;;;;;;;;;35.50;33.00;;;;;14.17;95.92;101201.03;5033742;28;45280;-78
2023/05/23 04:50:20;;;;;;;;;34.00;31.25;;;;;14.14;96.13;101196.75;5035629;28;45527;-76
2023/05/23 04:52:46;;;;;;;;;28.75;28.75;;;;;14.15;95.93;101189.66;5035291;28;45421;-70
2023/05/23 04:55:11;;;;;;;;;26.75;25.50;;;;;14.07;96.36;101176.78;5035434;28;45389;-80
2023/05/23 04:57:37;;;;;;;;;31.50;29.25;;;;;14.12;96.73;101189.78;5043629;28;45311;-77
2023/05/23 05:00:09;;;;;;;;;26.75;26.25;;;;;14.06;96.75;101177.72;5048188;28;45270;-79
2023/05/23 05:02:35;;;;;;;;;29.25;28.00;;;;;14.08;97.29;101190.84;5049110;28;47095;-71
2023/05/23 05:05:01;;;;;;;;;31.00;31.00;;;;;14.09;97.77;101193.44;5042993;28;45331;-81
2023/05/23 05:07:28;;;;;;;;;27.50;27.00;;;;;14.11;97.28;101190.72;5051730;28;45363;-80
2023/05/23 05:09:53;;;;;;;;;31.00;29.50;;;;;14.10;97.32;101195.16;5034334;28;45336;-77
2023/05/23 05:12:18;;;;;;;;;24.75;24.50;;;;;14.13;96.92;101197.66;5035310;28;46567;-78
2023/05/23 05:14:44;;;;;;;;;22.75;22.75;;;;;14.14;96.85;101191.44;5035305;28;45375;-80
2023/05/23 05:17:09;;;;;;;;;27.50;27.50;;;;;14.15;97.48;101197.59;5034196;28;45350;-80
2023/05/23 05:19:35;;;;;;;;;28.50;28.50;;;;;14.10;97.39;101202.22;5035861;28;45395;-68
2023/05/23 05:22:00;;;;;;;;;25.50;25.50;;;;;14.12;98.01;101203.00;5035154;28;45333;-71
2023/05/23 05:24:26;;;;;;;;;30.50;30.50;;;;;14.18;97.33;101210.66;5035711;28;45383;-77
2023/05/23 05:26:55;;;;;;;;;23.50;23.50;;;;;14.05;97.29;101186.59;5036714;28;45181;-72
2023/05/23 05:29:21;;;;;;;;;28.00;27.00;;;;;14.13;97.26;101202.09;5038672;28;45589;-80
2023/05/23 05:31:46;;;;;;;;;21.75;20.75;;;;;14.18;97.32;101210.66;5037534;28;45381;-79
2023/05/23 05:34:12;;;;;;;;;24.25;24.25;;;;;14.16;97.56;101205.47;5036562;28;45375;-72
2023/05/23 05:36:37;;;;;;;;;26.00;26.00;;;;;14.15;97.50;101201.09;5035825;28;45375;-80
2023/05/23 05:39:03;;;;;;;;;26.00;26.00;;;;;14.20;97.90;101207.97;5036606;28;45390;-75
2023/05/23 05:41:28;;;;;;;;;28.00;26.00;;;;;14.09;97.60;101188.16;5037984;28;46556;-81
2023/05/23 05:43:53;;;;;;;;;24.50;24.50;;;;;14.25;98.20;101211.28;5035889;28;45450;-77
2023/05/23 05:46:19;;;;;;;;;27.00;26.50;;;;;14.20;97.60;101208.81;5033908;28;45397;-79
2023/05/23 05:48:45;;;;;;;;;25.25;24.75;;;;;14.23;97.62;101219.25;5035434;28;45352;-78
2023/05/23 05:51:10;;;;;;;;;24.75;24.75;;;;;14.22;97.52;101209.59;5034682;28;45657;-76
2023/05/23 05:53:35;;;;;;;;;23.00;23.00;;;;;14.20;97.41;101208.81;5035459;28;45272;-78
2023/05/23 05:56:01;;;;;;;;;24.25;23.75;;;;;14.29;97.30;101226.06;5035288;28;45414;-74
2023/05/23 05:58:27;;;;;;;;;20.25;20.25;;;;;14.24;97.50;101213.03;5034528;28;45602;-78
2023/05/23 06:00:52;;;;;;;;;23.00;23.00;;;;;14.26;97.08;101216.47;5034219;28;46418;-76
2023/05/23 06:03:18;;;;;;;;;20.50;20.50;;;;;14.34;96.90;101224.06;5034563;28;45304;-71
2023/05/23 06:05:43;;;;;;;;;20.75;20.75;;;;;14.29;96.61;101215.50;5034154;28;45228;-80
2023/05/23 06:08:09;;;;;;;;;27.25;26.25;;;;;14.35;97.24;101222.31;5040445;28;45242;-73
2023/05/23 06:10:37;;;;;;;;;19.75;19.00;;;;;14.35;96.76;101225.78;5036358;28;46222;-77
2023/05/23 06:13:02;;;;;;;;;20.50;20.50;;;;;14.37;97.11;101229.22;5036064;28;45422;-76
2023/05/23 06:15:27;;;;;;;;;25.50;25.00;;;;;14.43;97.10;101223.66;5039013;28;45410;-74
2023/05/23 06:17:53;;;;;;;;;23.00;23.00;;;;;14.45;96.56;101227.09;5038254;28;45547;-74
2023/05/23 06:20:18;;;;;;;;;20.50;20.50;;;;;14.51;96.99;101227.72;5037864;28;45490;-76
2023/05/23 06:22:43;;;;;;;;;20.75;20.75;;;;;14.51;96.70;101233.03;5037926;28;45352;-71
2023/05/23 06:25:09;;;;;;;;;21.25;21.25;;;;;14.53;96.77;101234.69;5037934;28;45362;-75
2023/05/23 06:27:34;;;;;;;;;25.75;25.75;;;;;14.52;97.09;101235.63;5037864;28;45362;-73
2023/05/23 06:30:00;;;;;;;;;23.75;23.75;;;;;14.46;96.95;101220.03;5038352;28;46109;-72
2023/05/23 06:32:25;;;;;;;;;25.25;24.50;;;;;14.54;96.98;101232.88;5037736;28;45388;-80
2023/05/23 06:34:51;;;;;;;;;22.00;21.50;;;;;14.55;96.86;101237.25;5036622;28;45332;-78
2023/05/23 06:37:16;;;;;;;;;27.25;27.25;;;;;14.55;96.76;101231.94;5038520;28;45272;-72
2023/05/23 06:39:42;;;;;;;;;22.00;22.00;;;;;14.49;97.11;101224.28;5053811;28;47090;-72
2023/05/23 06:42:07;;;;;;;;;24.75;24.00;;;;;14.63;96.25;101245.69;5038216;28;45336;-74
2023/05/23 06:44:33;;;;;;;;;24.00;24.00;;;;;14.61;96.77;101243.13;5043072;28;45238;-73
2023/05/23 06:46:58;;;;;;;;;25.50;25.50;;;;;14.71;96.34;101245.38;5045628;28;45554;-68
2023/05/23 06:49:24;;;;;;;;;28.00;25.50;;;;;14.72;96.28;101250.59;5047109;28;46882;-74
2023/05/23 06:51:50;;;;;;;;;26.00;26.00;;;;;14.65;96.01;101241.19;5044575;28;45384;-76
2023/05/23 06:54:15;;;;;;;;;23.00;23.00;;;;;14.74;95.54;101255.81;5036323;28;45388;-77
2023/05/23 06:56:40;;;;;;;;;23.25;23.25;;;;;14.81;94.78;101264.31;5037563;28;45538;-79
2023/05/23 06:59:06;;;;;;;;;24.00;24.00;;;;;14.81;94.34;101257.25;5036506;28;45458;-72
2023/05/23 07:01:31;;;;;;;;;8.75;8.75;;;;;14.81;94.25;101264.31;5036581;28;50416;-74
2023/05/23 07:03:56;;;;;;;;;24.50;22.75;;;;;14.79;94.38;101260.88;5036718;28;45381;-71
2023/05/23 07:06:22;;;;;;;;;22.50;22.50;;;;;14.77;94.60;101268.91;5036749;28;45305;-68
2023/05/23 07:08:47;;;;;;;;;23.25;23.25;;;;;14.75;94.78;101271.63;5036425;28;46461;-79
2023/05/23 07:11:13;;;;;;;;;26.50;25.75;;;;;14.71;94.46;101261.25;5036339;28;45296;-71
2023/05/23 07:13:38;;;;;;;;;24.25;24.25;;;;;14.75;94.64;101282.22;5036702;28;45322;-69
2023/05/23 07:16:04;;;;;;;;;22.75;22.75;;;;;14.75;94.55;101276.91;5037075;28;45367;-74
2023/05/23 07:18:29;;;;;;;;;24.00;23.50;;;;;14.77;94.09;101279.50;5036549;28;45324;-68
2023/05/23 07:20:54;;;;;;;;;25.00;25.00;;;;;14.82;93.80;101282.81;5036794;28;45242;-75
2023/05/23 07:23:22;;;;;;;;;23.75;23.75;;;;;14.85;93.79;101287.13;5041454;28;45326;-74
2023/05/23 07:25:48;;;;;;;;;26.00;25.50;;;;;14.83;93.65;101281.88;5042449;28;45274;-74
2023/05/23 07:28:13;;;;;;;;;21.75;21.75;;;;;14.89;93.83;101293.97;5040740;28;54613;-70
2023/05/23 07:30:41;;;;;;;;;27.75;27.75;;;;;14.78;93.41;101280.34;5038410;28;45241;-75
2023/05/23 07:33:06;;;;;;;;;29.25;28.75;;;;;14.88;93.74;101286.97;5039390;28;45320;-69
2023/05/23 07:35:32;;;;;;;;;23.25;22.50;;;;;14.85;93.95;101281.81;5037519;28;45353;-80
2023/05/23 07:37:57;;;;;;;;;26.50;26.50;;;;;14.89;93.87;101302.78;5036472;28;46070;-79
2023/05/23 07:40:22;;;;;;;;;26.00;26.00;;;;;14.90;93.72;101306.28;5034980;28;45518;-78
2023/05/23 07:42:48;;;;;;;;;30.75;30.25;;;;;14.92;93.63;101300.91;5038670;28;45326;-79
2023/05/23 07:45:13;;;;;;;;;29.50;27.50;;;;;14.95;93.59;101291.03;5036686;28;45426;-82
2023/05/23 07:47:39;;;;;;;;;33.00;30.75;;;;;14.99;93.22;101289.97;5045903;28;46134;-77
2023/05/23 07:50:05;;;;;;;;;33.50;30.75;;;;;15.08;92.95;101309.00;5049077;28;45237;-76
2023/05/23 07:52:31;;;;;;;;;24.00;23.75;;;;;15.16;92.44;101306.84;5040954;28;45356;-77
2023/05/23 07:54:58;;;;;;;;;27.75;27.75;;;;;15.20;92.06;101305.75;5039185;28;45268;-78
2023/05/23 07:57:23;;;;;;;;;26.50;26.50;;;;;15.23;91.31;101312.69;5038032;28;46469;-76
2023/05/23 07:59:50;;;;;;;;;25.75;24.00;;;;;15.23;91.35;101308.25;5038250;28;45192;-80
2023/05/23 08:02:16;;;;;;;;;21.75;21.75;;;;;15.28;91.23;101306.25;5037137;28;45417;-79
2023/05/23 08:04:41;;;;;;;;;22.75;22.75;;;;;15.33;90.47;101314.84;5036912;28;45371;-83
2023/05/23 08:07:07;;;;;;;;;26.75;25.75;;;;;15.33;90.33;101314.84;5036798;28;45320;-68
2023/05/23 08:09:33;;;;;;;;;26.50;26.25;;;;;15.40;89.94;101320.72;5037207;28;45354;-82
2023/05/23 08:11:58;;;;;;;;;27.00;22.00;;;;;15.44;89.42;101316.97;5036410;28;45410;-73
2023/05/23 08:14:24;;;;;;;;;22.75;22.75;;;;;15.49;88.95;101319.38;5036982;28;45446;-73
2023/05/23 08:16:49;;;;;;;;;24.75;24.50;;;;;15.43;88.77;101311.72;5036277;28;52367;-75
2023/05/23 08:19:15;;;;;;;;;21.25;21.25;;;;;15.43;88.78;101317.03;5034805;28;45303;-73
2023/05/23 08:21:41;;;;;;;;;22.00;22.00;;;;;15.39;88.91;101318.13;5035753;28;45277;-69
2023/05/23 08:24:06;;;;;;;;;28.25;28.25;;;;;15.45;89.31;101324.00;5036747;28;45513;-68
2023/05/23 08:26:34;;;;;;;;;26.00;25.25;;;;;15.46;88.24;101322.19;5050716;28;47057;-65
2023/05/23 08:29:03;;;;;;;;;19.25;19.25;;;;;15.49;87.82;101319.38;5034978;28;45338;-75
2023/05/23 08:31:30;;;;;;;;;20.25;18.25;;;;;15.48;87.56;101317.66;5037161;28;45498;-73
2023/05/23 08:33:55;;;;;;;;;16.00;16.00;;;;;15.56;87.45;101317.31;5044743;28;45300;-65
2023/05/23 08:36:21;;;;;;;;;24.25;23.25;;;;;15.60;87.09;101325.00;5048212;28;45431;-74
2023/05/23 08:38:46;;;;;;;;;24.25;24.25;;;;;15.61;87.20;101329.38;5044533;28;47062;-80
2023/05/23 08:41:20;;;;;;;;;21.25;21.25;;;;;15.54;87.90;101324.47;5039746;28;45248;-80
2023/05/23 08:43:45;;;;;;;;;23.25;23.25;;;;;15.48;88.72;101330.94;5041032;28;45435;-78
2023/05/23 08:46:12;;;;;;;;;24.50;23.75;;;;;15.40;89.56;101325.13;5038548;28;45224;-65
2023/05/23 08:48:38;;;;;;;;;24.00;23.25;;;;;15.46;89.79;101333.66;5039023;28;45361;-76
2023/05/23 08:51:04;;;;;;;;;21.50;21.50;;;;;15.47;90.01;101338.03;5035332;28;45498;-77
2023/05/23 08:53:31;;;;;;;;;24.75;24.75;;;;;15.46;89.89;101325.72;5035747;28;45478;-79
2023/05/23 08:56:01;;;;;;;;;24.50;24.50;;;;;15.50;89.97;101331.72;5035201;28;46992;-70
2023/05/23 08:58:30;;;;;;;;;24.75;20.75;;;;;15.50;89.86;101337.00;5034814;28;45248;-66
2023/05/23 09:00:58;;;;;;;;;25.50;25.50;;;;;15.57;89.74;101329.63;5034469;28;45326;-64
2023/05/23 09:03:25;;;;;;;;;22.25;22.25;;;;;15.63;89.62;101330.16;5034853;28;45450;-66
2023/05/23 09:05:53;;;;;;;;;25.50;25.50;;;;;15.70;88.84;101338.69;5034670;28;46158;-80
2023/05/23 09:08:18;;;;;;;;;27.25;26.75;;;;;15.80;88.71;101335.56;5034985;28;45250;-81
2023/05/23 09:10:44;;;;;;;;;26.75;26.75;;;;;15.94;88.07;101345.53;5035147;28;45308;-66
2023/05/23 09:13:09;;;;;;;;;25.00;25.00;;;;;15.98;87.67;101342.63;5034063;28;45554;-78
2023/05/23 09:15:35;;;;;;;;;24.50;24.50;;;;;15.99;87.67;101341.69;5034841;28;45384;-67
2023/05/23 09:18:00;;;;;;;;;29.25;28.75;;;;;16.06;87.36;101350.22;5034717;28;45367;-72
2023/05/23 09:20:27;;;;;;;;;27.00;27.00;;;;;15.98;87.04;101332.03;5034825;28;45462;-77
2023/05/23 09:22:54;;;;;;;;;27.25;27.25;;;;;15.97;86.68;101343.56;5035088;28;45684;-73
2023/05/23 09:25:19;;;;;;;;;29.75;29.25;;;;;15.94;86.75;101350.84;5050006;28;46384;-68
2023/05/23 09:27:45;;;;;;;;;28.75;28.25;;;;;15.89;86.61;101343.09;5034382;28;45311;-75
2023/05/23 09:30:11;;;;;;;;;28.00;28.00;;;;;15.88;87.19;101349.34;5034966;28;45289;-75
2023/05/23 09:32:37;;;;;;;;;25.75;25.25;;;;;15.86;87.39;101343.22;5036507;28;45506;-79
2023/05/23 09:35:05;;;;;;;;;34.75;32.50;;;;;15.83;87.62;101340.72;5034251;28;47091;-79
2023/05/23 09:37:34;;;;;;;;;33.50;32.25;;;;;15.90;87.45;101351.00;5035331;28;45451;-76
2023/05/23 09:40:00;;;;;;;;;25.50;25.50;;;;;15.91;86.95;101334.13;5035196;28;45477;-74
2023/05/23 09:42:32;;;;;;;;;31.00;30.50;;;;;16.09;86.68;101347.41;5036950;28;45312;-66
2023/05/23 09:44:58;;;;;;;;;28.50;28.50;;;;;16.19;85.72;101334.50;5038479;28;46535;-71
2023/05/23 09:47:23;;;;;;;;;21.00;21.00;;;;;16.23;84.69;101353.78;5035870;28;45257;-77
2023/05/23 09:49:50;;;;;;;;;28.50;27.50;;;;;16.17;84.83;101355.81;5038776;28;45371;-76
2023/05/23 09:52:15;;;;;;;;;30.25;30.00;;;;;16.17;84.82;101353.19;5039009;28;45347;-64
2023/05/23 09:54:42;;;;;;;;;25.50;25.50;;;;;16.12;84.75;101349.91;5038841;28;45363;-67
2023/05/23 09:57:10;;;;;;;;;26.25;25.25;;;;;16.11;84.69;101361.44;5038612;28;45374;-75
2023/05/23 09:59:40;;;;;;;;;30.00;29.50;;;;;16.05;85.11;101348.50;5038962;28;45397;-71
2023/05/23 10:02:09;;;;;;;;;27.00;26.75;;;;;16.06;84.59;101347.56;5038377;28;45729;-71
2023/05/23 10:04:37;;;;;;;;;26.25;26.25;;;;;16.12;84.19;101346.38;5039129;28;46464;-77
2023/05/23 10:07:24;;;;;;;;;23.00;23.00;;;;;16.29;82.15;101345.50;5038522;28;45444;-64
2023/05/23 10:09:58;;;;;;;;;19.00;19.00;;;;;16.47;80.18;101352.50;5038082;28;45334;-71
2023/05/23 10:12:48;;;;;;;;;19.75;19.75;;;;;16.60;78.32;101354.50;5038823;28;45393;-78
2023/05/23 10:15:16;;;;;;;;;19.25;19.25;;;;;16.57;78.23;101347.56;5037999;28;47357;-74
2023/05/23 10:18:04;;;;;;;;;20.50;20.50;;;;;16.61;78.14;101354.44;5038588;28;45229;-67
2023/05/23 10:20:31;;;;;;;;;22.00;22.00;;;;;16.69;78.06;101355.81;5040862;28;45162;-68
2023/05/23 10:23:01;;;;;;;;;22.50;22.50;;;;;16.84;78.00;101356.78;5042195;28;45356;-78
2023/05/23 10:25:28;;;;;;;;;17.00;17.00;;;;;16.90;77.56;101343.16;5041242;28;46403;-75
2023/05/23 10:27:58;;;;;;;;;24.75;24.00;;;;;17.01;76.70;101355.91;5040221;28;45340;-70
2023/05/23 10:30:25;;;;;;;;;25.50;25.50;;;;;17.08;77.11;101355.50;5055793;28;45481;-72
2023/05/23 10:32:52;;;;;;;;;21.00;21.00;;;;;17.12;75.83;101356.16;5040444;28;45329;-72
2023/05/23 10:35:45;;;;;;;;;22.00;21.75;;;;;17.15;75.17;101360.47;5039446;28;46261;-74
2023/05/23 10:38:37;;;;;;;;;29.75;27.75;;;;;17.10;75.97;101363.38;5037918;28;45330;-71
2023/05/23 10:41:32;;;;;;;;;25.25;25.25;;;;;17.06;76.22;101370.66;5038706;28;45855;-65
2023/05/23 10:44:16;;;;;;;;;22.75;22.50;;;;;16.97;76.04;101372.94;5039139;28;45336;-66
2023/05/23 10:46:53;;;;;;;;;19.00;19.00;;;;;16.91;76.22;101372.31;5037866;28;45245;-72
2023/05/23 10:49:20;;;;;;;;;25.75;25.75;;;;;16.92;76.43;101357.22;5037645;28;45306;-69
2023/05/23 10:51:50;;;;;;;;;23.00;23.00;;;;;16.95;75.64;101346.41;5036923;28;44827;-68
2023/05/23 10:54:18;;;;;;;;;25.75;25.75;;;;;17.06;75.19;101354.72;5038482;28;45385;-73
2023/05/23 10:56:43;;;;;;;;;20.75;20.75;;;;;17.05;75.00;101342.38;5037931;28;47232;-74
2023/05/23 10:59:19;;;;;;;;;40.00;34.75;;;;;17.18;74.47;101350.50;5036979;28;45245;-70
2023/05/23 11:01:44;;;;;;;;;21.75;21.75;;;;;17.14;74.50;101346.31;5054720;28;45507;-72
2023/05/23 11:04:11;;;;;;;;;24.25;24.00;;;;;17.13;74.60;101349.91;5040195;28;45429;-69
2023/05/23 11:06:42;;;;;;;;;24.00;23.25;;;;;17.25;74.39;101353.69;5041457;28;45490;-72
2023/05/23 11:09:11;;;;;;;;;27.00;26.00;;;;;17.28;74.13;101358.84;5039296;28;45285;-71